createdAt,value
2019-05-15T00:00:50.793Z,4.20
2019-05-15T00:03:21.261Z,4.53
2019-05-15T00:05:50.727Z,4.33
2019-05-15T00:08:20.468Z,4.20
2019-05-15T00:10:49.985Z,4.67
2019-05-15T00:13:19.414Z,4.17
2019-05-15T00:15:48.885Z,3.80
2019-05-15T00:18:18.650Z,3.90
2019-05-15T00:20:49.711Z,3.63
2019-05-15T00:23:19.413Z,4.30
2019-05-15T00:25:48.965Z,4.13
2019-05-15T00:28:18.687Z,3.33
2019-05-15T00:30:48.316Z,3.70
2019-05-15T00:33:19.387Z,3.80
2019-05-15T00:35:49.003Z,3.60
2019-05-15T00:38:18.807Z,3.73
2019-05-15T00:40:49.634Z,4.23
2019-05-15T00:43:19.212Z,4.30
2019-05-15T00:45:48.949Z,4.03
2019-05-15T00:48:18.777Z,4.27
2019-05-15T00:50:48.650Z,4.00
2019-05-15T00:53:19.651Z,3.70
2019-05-15T00:55:49.261Z,3.73
2019-05-15T00:58:19.906Z,3.43
2019-05-15T01:00:49.657Z,3.57
2019-05-15T01:03:20.008Z,3.70
2019-05-15T01:05:49.580Z,4.20
2019-05-15T01:08:19.408Z,4.10
2019-05-15T01:10:49.195Z,4.00
2019-05-15T01:13:19.097Z,4.27
2019-05-15T01:15:49.113Z,3.93
2019-05-15T01:18:18.942Z,4.33
2019-05-15T01:20:49.384Z,4.20
2019-05-15T01:23:18.960Z,4.27
2019-05-15T01:25:48.416Z,4.90
2019-05-15T01:28:18.420Z,5.17
2019-05-15T01:30:48.715Z,4.70
2019-05-15T01:33:18.962Z,4.40
2019-05-15T01:35:50.153Z,4.20
2019-05-15T01:38:19.552Z,4.10
2019-05-15T01:40:48.996Z,4.40
2019-05-15T01:43:18.833Z,4.50
2019-05-15T01:45:48.584Z,4.53
2019-05-15T01:48:19.520Z,5.27
2019-05-15T01:50:49.492Z,4.77
2019-05-15T01:53:19.093Z,5.00
2019-05-15T01:55:48.618Z,4.60
2019-05-15T01:58:19.080Z,4.73
2019-05-15T02:00:48.661Z,4.70
2019-05-15T02:03:18.522Z,4.60
2019-05-15T02:05:48.306Z,4.13
2019-05-15T02:08:19.135Z,3.90
2019-05-15T02:10:49.473Z,4.97
2019-05-15T02:13:19.134Z,4.87
2019-05-15T02:15:48.577Z,5.30
2019-05-15T02:18:19.120Z,5.27
2019-05-15T02:20:49.508Z,4.30
2019-05-15T02:23:19.176Z,4.43
2019-05-15T02:25:48.776Z,3.83
2019-05-15T02:28:18.540Z,4.53
2019-05-15T02:30:50.475Z,4.47
2019-05-15T02:33:19.265Z,4.50
2019-05-15T02:35:50.163Z,4.47
2019-05-15T02:38:20.349Z,4.90
2019-05-15T02:40:49.863Z,4.77
2019-05-15T02:43:19.455Z,5.27
2019-05-15T02:45:50.837Z,5.30
2019-05-15T02:48:20.216Z,5.70
2019-05-15T02:50:50.286Z,5.50
2019-05-15T02:53:20.039Z,4.67
2019-05-15T02:55:49.815Z,5.00
2019-05-15T02:58:21.156Z,5.83
2019-05-15T03:00:53.511Z,5.93
2019-05-15T03:03:23.288Z,6.73
2019-05-15T03:05:55.818Z,6.60
2019-05-15T03:08:25.389Z,6.50
2019-05-15T03:10:54.896Z,6.30
2019-05-15T03:13:24.485Z,7.90
2019-05-15T03:15:53.990Z,7.47
2019-05-15T03:18:23.642Z,7.27
2019-05-15T03:20:53.232Z,7.60
2019-05-15T03:23:22.715Z,4.77
2019-05-15T03:25:52.294Z,5.20
2019-05-15T03:28:21.696Z,7.20
2019-05-15T03:31:14.831Z,7.70
2019-05-15T03:33:27.802Z,7.40
2019-05-15T03:35:54.958Z,7.50
2019-05-15T03:38:24.678Z,6.80
2019-05-15T03:40:54.148Z,7.30
2019-05-15T03:43:23.585Z,8.13
2019-05-15T03:45:53.034Z,8.67
2019-05-15T03:48:22.617Z,8.47
2019-05-15T03:50:52.112Z,9.10
2019-05-15T03:53:21.614Z,7.67
2019-05-15T03:55:51.080Z,6.83
2019-05-15T03:58:21.627Z,8.13
2019-05-15T04:00:51.378Z,6.53
2019-05-15T04:03:21.102Z,7.07
2019-05-15T04:05:50.631Z,7.00
2019-05-15T04:08:20.208Z,6.27
2019-05-15T04:10:49.641Z,6.13
2019-05-15T04:13:20.013Z,6.27
2019-05-15T04:15:50.369Z,6.03
2019-05-15T04:18:20.237Z,5.87
2019-05-15T04:20:49.822Z,5.40
2019-05-15T04:23:23.641Z,5.63
2019-05-15T04:25:53.867Z,6.27
2019-05-15T04:28:23.313Z,4.57
2019-05-15T04:30:52.755Z,5.80
2019-05-15T04:33:22.271Z,6.00
2019-05-15T04:35:51.984Z,6.07
2019-05-15T04:38:21.498Z,6.03
2019-05-15T04:40:50.946Z,6.33
2019-05-15T04:43:20.481Z,6.93
2019-05-15T04:45:50.009Z,6.27
2019-05-15T04:48:20.169Z,6.50
2019-05-15T04:50:50.023Z,7.33
2019-05-15T04:53:20.310Z,7.50
2019-05-15T04:55:49.763Z,7.40
2019-05-15T04:58:20.781Z,7.27
2019-05-15T05:00:54.584Z,7.93
2019-05-15T05:03:24.162Z,7.10
2019-05-15T05:05:53.721Z,7.43
2019-05-15T05:08:23.231Z,7.13
2019-05-15T05:10:52.786Z,7.37
2019-05-15T05:13:22.236Z,7.13
2019-05-15T05:15:51.749Z,6.63
2019-05-15T05:18:21.185Z,6.80
2019-05-15T05:20:52.187Z,6.37
2019-05-15T05:23:21.625Z,6.47
2019-05-15T05:25:51.076Z,6.57
2019-05-15T05:28:22.028Z,6.17
2019-05-15T05:30:51.649Z,5.93
2019-05-15T05:33:21.130Z,5.67
2019-05-15T05:35:50.693Z,5.80
2019-05-15T05:38:20.445Z,5.83
2019-05-15T05:40:50.453Z,5.63
2019-05-15T05:43:20.599Z,5.23
2019-05-15T05:45:50.058Z,5.77
2019-05-15T05:48:19.556Z,6.13
2019-05-15T05:50:49.858Z,5.80
2019-05-15T05:53:21.315Z,5.50
2019-05-15T05:55:53.387Z,5.20
2019-05-15T05:58:22.352Z,5.90
2019-05-15T06:00:52.923Z,5.60
2019-05-15T06:03:22.332Z,5.40
2019-05-15T06:05:51.940Z,4.97
2019-05-15T06:08:21.418Z,5.17
2019-05-15T06:10:50.937Z,5.10
2019-05-15T06:13:20.359Z,4.63
2019-05-15T06:15:49.790Z,4.40
2019-05-15T06:18:20.007Z,5.57
2019-05-15T06:20:50.128Z,4.67
2019-05-15T06:23:24.565Z,4.97
2019-05-15T06:25:51.549Z,4.00
2019-05-15T06:28:21.039Z,4.10
2019-05-15T06:30:50.733Z,4.13
2019-05-15T06:33:20.206Z,3.83
2019-05-15T06:35:49.673Z,4.60
2019-05-15T06:38:19.810Z,4.10
2019-05-15T06:40:50.301Z,4.20
2019-05-15T06:43:19.853Z,4.30
2019-05-15T06:45:49.500Z,4.60
2019-05-15T06:48:19.181Z,4.23
2019-05-15T06:50:49.393Z,4.03
2019-05-15T06:53:19.696Z,4.23
2019-05-15T06:55:49.349Z,3.70
2019-05-15T06:58:19.796Z,3.70
2019-05-15T07:00:49.886Z,3.60
2019-05-15T07:03:25.281Z,3.80
2019-05-15T07:05:51.207Z,4.10
2019-05-15T07:08:20.863Z,3.93
2019-05-15T07:10:50.290Z,3.80
2019-05-15T07:13:19.727Z,3.40
2019-05-15T07:15:49.860Z,3.50
2019-05-15T07:18:20.047Z,3.40
2019-05-15T07:20:49.845Z,3.93
2019-05-15T07:23:19.533Z,3.27
2019-05-15T07:25:50.139Z,3.30
2019-05-15T07:28:19.746Z,2.63
2019-05-15T07:30:49.783Z,2.23
2019-05-15T07:33:35.296Z,2.20
2019-05-15T07:35:50.637Z,2.20
2019-05-15T07:38:20.116Z,2.20
2019-05-15T07:40:57.307Z,1.83
2019-05-15T07:43:20.846Z,1.93
2019-05-15T07:45:54.841Z,2.10
2019-05-15T07:48:24.562Z,2.00
2019-05-15T07:50:54.780Z,1.90
2019-05-15T07:53:24.232Z,2.27
2019-05-15T07:55:53.721Z,1.87
2019-05-15T07:58:23.178Z,1.73
2019-05-15T08:00:54.144Z,1.77
2019-05-15T08:03:23.752Z,1.80
2019-05-15T08:05:59.111Z,1.93
2019-05-15T08:08:24.399Z,1.90
2019-05-15T08:10:53.933Z,2.50
2019-05-15T08:13:23.441Z,2.40
2019-05-15T08:15:52.890Z,2.40
2019-05-15T08:18:22.339Z,2.50
2019-05-15T08:20:51.816Z,3.00
2019-05-15T08:23:21.411Z,3.23
2019-05-15T08:25:50.821Z,3.10
2019-05-15T08:28:20.264Z,3.50
2019-05-15T08:30:51.143Z,3.50
2019-05-15T08:33:20.578Z,3.30
2019-05-15T08:35:51.832Z,3.17
2019-05-15T08:38:21.198Z,3.30
2019-05-15T08:40:51.020Z,2.80
2019-05-15T08:43:20.508Z,2.70
2019-05-15T08:45:51.311Z,2.50
2019-05-15T08:48:22.223Z,2.80
2019-05-15T08:50:51.725Z,2.83
2019-05-15T08:53:21.350Z,2.57
2019-05-15T08:55:50.789Z,2.60
2019-05-15T08:58:20.841Z,2.70
2019-05-15T09:00:52.448Z,2.40
2019-05-15T09:03:22.723Z,2.10
2019-05-15T09:05:52.136Z,2.47
2019-05-15T09:08:21.819Z,2.27
2019-05-15T09:10:51.224Z,2.33
2019-05-15T09:13:20.731Z,2.20
2019-05-15T09:15:50.289Z,2.13
2019-05-15T09:18:20.541Z,1.90
2019-05-15T09:20:50.228Z,1.80
2019-05-15T09:23:20.259Z,1.53
2019-05-15T09:25:50.046Z,1.60
2019-05-15T09:28:19.754Z,1.60
2019-05-15T09:30:49.508Z,1.60
2019-05-15T09:33:20.124Z,2.10
2019-05-15T09:35:49.840Z,3.30
2019-05-15T09:38:19.287Z,2.40
2019-05-15T09:40:51.059Z,3.73
2019-05-15T09:43:20.399Z,2.30
2019-05-15T09:45:49.872Z,1.47
2019-05-15T09:48:20.211Z,1.50
2019-05-15T09:50:49.889Z,1.70
2019-05-15T09:53:19.546Z,4.20
2019-05-15T09:55:49.938Z,1.70
2019-05-15T09:58:21.027Z,1.60
2019-05-15T10:00:53.045Z,1.60
2019-05-15T10:03:22.095Z,1.70
2019-05-15T10:05:51.528Z,1.70
2019-05-15T10:08:21.633Z,1.70
2019-05-15T10:10:52.590Z,1.90
2019-05-15T10:13:22.069Z,1.90
2019-05-15T10:15:51.521Z,1.60
2019-05-15T10:18:20.994Z,1.50
2019-05-15T10:20:50.502Z,1.37
2019-05-15T10:23:20.157Z,1.50
2019-05-15T10:25:50.238Z,7.03
2019-05-15T10:28:21.311Z,6.97
2019-05-15T10:30:50.877Z,2.07
2019-05-15T10:33:20.655Z,3.20
2019-05-15T10:35:50.278Z,2.33
2019-05-15T10:38:19.845Z,1.80
2019-05-15T10:41:03.622Z,1.83
2019-05-15T10:43:21.174Z,1.83
2019-05-15T10:45:54.468Z,2.43
2019-05-15T10:48:21.813Z,2.30
2019-05-15T10:50:51.364Z,2.37
2019-05-15T10:53:21.009Z,2.30
2019-05-15T10:55:50.467Z,2.20
2019-05-15T10:58:21.894Z,2.50
2019-05-15T11:00:51.131Z,2.23
2019-05-15T11:03:20.768Z,2.50
2019-05-15T11:05:50.235Z,2.40
2019-05-15T11:08:19.673Z,2.77
2019-05-15T11:10:49.803Z,2.43
2019-05-15T11:13:19.503Z,2.70
2019-05-15T11:15:49.547Z,2.90
2019-05-15T11:18:19.286Z,2.70
2019-05-15T11:20:49.128Z,2.70
2019-05-15T11:23:20.542Z,2.90
2019-05-15T11:25:50.049Z,2.70
2019-05-15T11:28:19.454Z,2.70
2019-05-15T11:30:49.372Z,2.70
2019-05-15T11:33:19.409Z,2.90
2019-05-15T11:36:00.952Z,2.97
2019-05-15T11:38:24.352Z,3.00
2019-05-15T11:40:53.970Z,2.70
2019-05-15T11:43:23.382Z,2.63
2019-05-15T11:45:52.909Z,2.87
2019-05-15T11:48:22.458Z,2.60
2019-05-15T11:50:53.524Z,3.00
2019-05-15T11:53:23.058Z,2.70
2019-05-15T11:55:52.445Z,2.70
2019-05-15T11:58:21.972Z,2.60
2019-05-15T12:00:51.454Z,2.83
2019-05-15T12:03:24.601Z,2.70
2019-05-15T12:05:52.089Z,2.70
2019-05-15T12:08:21.540Z,2.60
2019-05-15T12:10:50.942Z,2.63
2019-05-15T12:13:20.498Z,2.60
2019-05-15T12:15:49.909Z,2.63
2019-05-15T12:18:19.374Z,2.83
2019-05-15T12:20:48.915Z,2.90
2019-05-15T12:23:18.465Z,2.90
2019-05-15T12:25:48.847Z,2.80
2019-05-15T12:28:18.800Z,2.60
2019-05-15T12:30:49.275Z,3.17
2019-05-15T12:33:18.941Z,2.97
2019-05-15T12:35:50.886Z,2.70
2019-05-15T12:38:19.529Z,2.63
2019-05-15T13:01:12.731Z,2.20
2019-05-15T13:03:31.462Z,2.60
2019-05-15T13:06:00.889Z,2.53
2019-05-15T13:08:30.443Z,2.90
2019-05-15T13:10:59.847Z,3.10
2019-05-15T13:13:29.367Z,2.70
2019-05-15T13:15:59.176Z,3.03
2019-05-15T13:18:28.835Z,3.13
2019-05-15T13:20:59.457Z,3.20
2019-05-15T13:23:29.323Z,2.93
2019-05-15T13:26:01.847Z,2.80
2019-05-15T13:28:31.326Z,2.53
2019-05-15T13:31:00.743Z,2.50
2019-05-15T13:33:30.183Z,2.37
2019-05-15T13:35:59.760Z,2.70
2019-05-15T13:38:30.892Z,2.20
2019-05-15T13:41:00.569Z,2.17
2019-05-15T13:43:31.517Z,2.03
2019-05-15T13:46:00.998Z,1.70
2019-05-15T13:48:30.587Z,1.93
2019-05-15T13:51:01.703Z,1.93
2019-05-15T13:53:32.612Z,1.50
2019-05-15T13:56:02.158Z,2.03
2019-05-15T13:58:31.658Z,1.80
2019-05-15T14:01:01.160Z,1.80
2019-05-15T14:03:30.628Z,1.50
2019-05-15T14:06:00.104Z,1.43
2019-05-15T14:08:29.537Z,1.57
2019-05-15T14:11:00.394Z,1.57
2019-05-15T14:13:29.952Z,1.37
2019-05-15T14:15:59.822Z,1.50
2019-05-15T14:18:29.255Z,1.60
2019-05-15T14:20:58.709Z,1.40
2019-05-15T14:23:29.497Z,1.60
2019-05-15T14:26:12.990Z,1.30
2019-05-15T14:28:30.464Z,2.00
2019-05-15T14:31:01.531Z,1.70
2019-05-15T14:33:30.972Z,2.10
2019-05-15T14:36:02.012Z,2.37
2019-05-15T14:38:31.455Z,2.37
2019-05-15T14:41:00.987Z,2.00
2019-05-15T14:43:30.511Z,2.00
2019-05-15T14:46:00.384Z,2.13
2019-05-15T14:48:29.833Z,2.10
2019-05-15T14:51:00.908Z,2.10
2019-05-15T14:53:30.886Z,2.30
2019-05-15T14:56:00.632Z,2.60
2019-05-15T14:58:30.236Z,2.20
2019-05-15T15:01:03.313Z,2.20
2019-05-15T15:03:32.362Z,5.37
2019-05-15T15:06:01.816Z,2.53
2019-05-15T15:08:32.711Z,2.13
2019-05-15T15:11:03.150Z,2.27
2019-05-15T15:13:32.775Z,2.50
2019-05-15T15:16:02.304Z,3.60
2019-05-15T15:18:31.734Z,2.90
2019-05-15T15:21:01.231Z,2.70
2019-05-15T15:23:30.712Z,2.23
2019-05-15T15:26:00.168Z,2.60
2019-05-15T15:28:29.683Z,2.80
2019-05-15T15:30:59.108Z,2.50
2019-05-15T15:33:29.011Z,2.67
2019-05-15T15:35:58.587Z,2.53
2019-05-15T15:38:40.124Z,2.70
2019-05-15T15:41:00.480Z,2.67
2019-05-15T15:43:30.194Z,2.60
2019-05-15T15:45:59.669Z,2.70
2019-05-15T15:48:29.130Z,2.43
2019-05-15T15:50:58.928Z,2.63
2019-05-15T15:53:29.887Z,3.03
2019-05-15T15:55:59.363Z,2.43
2019-05-15T15:58:29.179Z,2.83
2019-05-15T16:00:58.686Z,3.13
2019-05-15T16:03:28.733Z,2.70
2019-05-15T16:05:58.263Z,3.10
2019-05-15T16:08:28.556Z,2.57
2019-05-15T16:10:58.986Z,3.10
2019-05-15T16:13:29.255Z,2.93
2019-05-15T16:15:58.829Z,2.40
2019-05-15T16:18:28.920Z,2.87
2019-05-15T16:20:58.616Z,3.10
2019-05-15T16:23:28.448Z,2.97
2019-05-15T16:26:01.015Z,2.60
2019-05-15T16:28:29.423Z,2.50
2019-05-15T16:30:58.946Z,2.53
2019-05-15T16:33:30.093Z,3.03
2019-05-15T16:35:59.561Z,2.90
2019-05-15T16:38:29.025Z,2.90
2019-05-15T16:40:58.655Z,3.40
2019-05-15T16:43:28.693Z,3.07
2019-05-15T16:45:58.888Z,3.47
2019-05-15T16:48:29.891Z,3.23
2019-05-15T16:50:59.321Z,3.33
2019-05-15T16:53:29.141Z,3.13
2019-05-15T16:55:59.013Z,3.70
2019-05-15T16:58:29.613Z,3.50
2019-05-15T17:00:59.438Z,3.67
2019-05-15T17:03:29.139Z,3.03
2019-05-15T17:05:59.707Z,3.30
2019-05-15T17:08:32.059Z,3.67
2019-05-15T17:11:00.514Z,2.93
2019-05-15T17:13:29.987Z,3.27
2019-05-15T17:15:59.438Z,3.10
2019-05-15T17:18:28.936Z,3.23
2019-05-15T17:20:59.035Z,3.43
2019-05-15T17:23:28.669Z,3.10
2019-05-15T17:26:00.464Z,3.13
2019-05-15T17:28:29.926Z,3.00
2019-05-15T17:30:59.364Z,3.17
2019-05-15T17:33:29.111Z,2.90
2019-05-15T17:35:58.654Z,3.00
2019-05-15T17:38:28.654Z,3.47
2019-05-15T17:40:58.688Z,3.30
2019-05-15T17:43:28.780Z,3.37
2019-05-15T17:45:58.641Z,3.20
2019-05-15T17:48:28.891Z,2.67
2019-05-15T17:50:59.478Z,3.17
2019-05-15T17:53:29.021Z,2.70
2019-05-15T17:55:58.838Z,3.10
2019-05-15T17:58:28.807Z,2.90
2019-05-15T18:00:59.546Z,3.63
2019-05-15T18:03:29.131Z,2.80
2019-05-15T18:05:59.251Z,3.10
2019-05-15T18:08:28.878Z,3.40
2019-05-15T18:10:58.873Z,2.93
2019-05-15T18:13:29.902Z,3.30
2019-05-15T18:16:02.877Z,3.00
2019-05-15T18:18:30.504Z,3.30
2019-05-15T18:20:59.949Z,3.40
2019-05-15T18:23:29.356Z,3.20
2019-05-15T18:25:59.071Z,3.50
2019-05-15T18:28:28.781Z,3.33
2019-05-15T18:30:58.738Z,3.40
2019-05-15T18:33:28.480Z,3.43
2019-05-15T18:35:58.243Z,3.67
2019-05-15T18:38:28.218Z,3.80
2019-05-15T18:40:58.396Z,4.43
2019-05-15T18:43:28.399Z,4.20
2019-05-15T18:45:58.613Z,4.70
2019-05-15T18:48:28.878Z,4.60
2019-05-15T18:51:00.293Z,4.80
2019-05-15T18:53:29.777Z,4.60
2019-05-15T18:56:01.026Z,4.90
2019-05-15T18:58:30.557Z,3.90
2019-05-15T19:00:59.964Z,4.50
2019-05-15T19:03:29.498Z,4.03
2019-05-15T19:05:58.893Z,4.37
2019-05-15T19:08:28.446Z,4.10
2019-05-15T19:10:58.556Z,4.30
2019-05-15T19:13:28.410Z,3.90
2019-05-15T19:15:58.061Z,4.20
2019-05-15T19:18:28.030Z,4.20
2019-05-15T19:20:58.574Z,4.20
2019-05-15T19:23:28.281Z,4.47
2019-05-15T19:25:58.039Z,3.70
2019-05-15T19:28:28.566Z,4.33
2019-05-15T19:30:58.688Z,4.30
2019-05-15T19:33:36.945Z,4.00
2019-05-15T19:36:02.306Z,3.80
2019-05-15T19:38:32.105Z,4.13
2019-05-15T19:41:06.126Z,3.90
2019-05-15T19:43:34.392Z,4.00
2019-05-15T19:46:03.861Z,4.20
2019-05-15T19:48:33.319Z,3.97
2019-05-15T19:51:02.737Z,4.10
2019-05-15T19:53:32.337Z,3.90
2019-05-15T19:56:01.743Z,3.87
2019-05-15T19:58:31.266Z,3.47
2019-05-15T20:01:00.726Z,3.30
2019-05-15T20:03:31.688Z,3.53
2019-05-15T20:06:01.799Z,3.50
2019-05-15T20:08:31.339Z,3.90
2019-05-15T20:11:00.885Z,4.07
2019-05-15T20:13:32.029Z,4.37
2019-05-15T20:16:01.525Z,3.77
2019-05-15T20:18:31.055Z,3.77
2019-05-15T20:21:00.560Z,4.23
2019-05-15T20:23:30.003Z,4.17
2019-05-15T20:25:59.440Z,4.30
2019-05-15T20:28:28.998Z,4.17
2019-05-15T20:30:58.861Z,4.30
2019-05-15T20:33:28.692Z,4.03
2019-05-15T20:35:58.963Z,4.10
2019-05-15T20:38:28.741Z,4.77
2019-05-15T20:40:59.725Z,4.47
2019-05-15T20:43:30.919Z,5.20
2019-05-15T20:46:00.556Z,4.73
2019-05-15T20:48:30.014Z,4.83
2019-05-15T20:50:59.514Z,5.17
2019-05-15T20:53:28.946Z,5.40
2019-05-15T20:55:58.936Z,5.17
2019-05-15T20:58:28.480Z,5.13
2019-05-15T21:00:59.084Z,5.07
2019-05-15T21:03:28.901Z,5.80
2019-05-15T21:06:00.861Z,5.13
2019-05-15T21:08:29.628Z,4.50
2019-05-15T21:10:59.253Z,4.60
2019-05-15T21:13:29.870Z,4.63
2019-05-15T21:15:59.953Z,4.63
2019-05-15T21:18:29.732Z,4.63
2019-05-15T21:20:59.176Z,4.20
2019-05-15T21:23:28.814Z,3.93
2019-05-15T21:25:59.037Z,4.23
2019-05-15T21:28:30.058Z,3.63
2019-05-15T21:30:59.691Z,4.17
2019-05-15T21:33:29.507Z,3.70
2019-05-15T21:35:59.028Z,4.20
2019-05-15T21:38:28.555Z,4.03
2019-05-15T21:40:58.594Z,4.37
2019-05-15T21:43:28.287Z,4.17
2019-05-15T21:45:59.102Z,4.00
2019-05-15T21:48:28.931Z,4.17
2019-05-15T21:50:58.773Z,4.33
2019-05-15T21:53:28.855Z,4.53
2019-05-15T21:55:58.968Z,4.17
2019-05-15T21:58:30.006Z,4.57
2019-05-15T22:00:59.853Z,3.77
2019-05-15T22:03:30.150Z,4.37
2019-05-15T22:06:00.039Z,4.57
2019-05-15T22:08:29.571Z,4.87
2019-05-15T22:10:59.028Z,4.90
2019-05-15T22:13:31.539Z,4.40
2019-05-15T22:15:59.802Z,4.60
2019-05-15T22:18:29.459Z,5.03
2019-05-15T22:20:58.966Z,5.00
2019-05-15T22:23:28.511Z,4.83
2019-05-15T22:25:58.543Z,5.47
2019-05-15T22:28:28.380Z,5.27
2019-05-15T22:30:58.530Z,4.83
2019-05-15T22:33:28.724Z,4.73
2019-05-15T22:35:59.307Z,5.40
2019-05-15T22:38:29.179Z,5.13
2019-05-15T22:40:58.626Z,5.30
2019-05-15T22:43:28.807Z,5.87
2019-05-15T22:45:59.970Z,5.67
2019-05-15T22:48:29.418Z,5.70
2019-05-15T22:50:59.803Z,6.03
2019-05-15T22:53:29.510Z,6.57
2019-05-15T22:55:59.016Z,6.10
2019-05-15T22:58:28.528Z,6.47
2019-05-15T23:00:59.883Z,6.63
2019-05-15T23:03:29.430Z,6.67
2019-05-15T23:05:58.956Z,6.50
2019-05-15T23:08:29.024Z,7.37
2019-05-15T23:10:58.916Z,6.73
2019-05-15T23:13:28.784Z,6.40
2019-05-15T23:15:58.547Z,6.40
2019-05-15T23:18:28.149Z,6.53
2019-05-15T23:20:59.424Z,6.80
2019-05-15T23:23:28.977Z,5.97
2019-05-15T23:25:58.788Z,5.97
2019-05-15T23:28:28.295Z,6.47
2019-05-15T23:30:57.824Z,6.60
2019-05-15T23:33:28.285Z,6.20
2019-05-15T23:35:58.695Z,6.63
2019-05-15T23:38:28.264Z,6.87
2019-05-15T23:40:58.947Z,6.90
2019-05-15T23:43:28.561Z,6.50
2019-05-15T23:45:58.925Z,6.73
2019-05-15T23:48:28.588Z,6.53
2019-05-15T23:50:59.127Z,6.30
2019-05-15T23:53:29.020Z,6.33
2019-05-15T23:55:58.999Z,6.50
2019-05-15T23:58:29.355Z,5.83
